Flood From: 22-02-2018 16:00 Until: 23-02-2018 16:00 warning for: Flood Level: Yellow info button

Although rather usual in this region, locally or potentially dangerous phenomena are expected. (such as local winds, summer thunderstorms, rising streams or high waves) Be aware and pay attention to the latest weather updates, especially if you carry out activities exposed to weather or close to a stream or shoreline. 


Meteo18 Weather Cam more information Meteo18 Weather Cam


Thunder radar more information blitzortung!


Rain radar more information rain snow radar


Visit our other weather sites:

Template documentation
and downloads

And another site



Weather Underground History page Text

Daily Summary for August 19, 2017 Units:  Both    English   Metric
« Previous Day
Next Day »
Daily Weekly Monthly Yearly Custom
  High: Low: Average:
Temperature: TemperatureC °F /  -17.8 °C 11.6 °F /  -11.3 °C 15.9 °F /  -8.9 °C
Dew Point: DewpointC °F /  -17.8 °C 8.9 °F /  -12.8 °C 11.1 °F /  -11.6 °C
Humidity: Humidity % 48 % 75 %
Wind Speed: WindSpeedKMH mph /  0 km/h - 3.8 mph /  6.1 km/h
Wind Gust: WindSpeedGustKMH mph /  0 km/h - -
Wind:- - West
Pressure: PressurehPa in /  0 hPa 1020.2 in /  34544 hPa -
Precipitation: 0.3 in /  7.62 mm    
Historical Graphs
 
 
Tabular Data for August 19, 2017
Time Temperature Dew Point Pressure Wind Wind Speed Wind Gust Humidity Rainfall Rate (Hourly)
TemperatureC °F /  -17.8 °C DewpointC °F /  -17.8 °C PressurehPa in /  0 hPa Calm     Humidity % HourlyPrecipMM in /  0 mm
00:02 16.3 °F /  -8.7 °C 15.5 °F /  -9.2 °C 1020.2 in /  34544 hPa WSW 6.4 mph /  10.3 km/h 14.5 mph /  23.3 km/h 95 % 0.0 in /  0 mm
00:12 16.3 °F /  -8.7 °C 15.5 °F /  -9.2 °C 1020.2 in /  34544 hPa West 6.4 mph /  10.3 km/h 16.1 mph /  25.9 km/h 95 % 0.0 in /  0 mm
00:17 16.3 °F /  -8.7 °C 15.5 °F /  -9.2 °C 1020.2 in /  34544 hPa SW 6.4 mph /  10.3 km/h 16.1 mph /  25.9 km/h 95 % 0.0 in /  0 mm
00:22 16.3 °F /  -8.7 °C 15.3 °F /  -9.3 °C 1020.2 in /  34544 hPa WSW 8.0 mph /  12.9 km/h 16.1 mph /  25.9 km/h 94 % 0.0 in /  0 mm
00:27 16.3 °F /  -8.7 °C 15.3 °F /  -9.3 °C 1020.5 in /  34554.1 hPa WSW 4.8 mph /  7.7 km/h 16.1 mph /  25.9 km/h 94 % 0.0 in /  0 mm
00:32 16.3 °F /  -8.7 °C 15.3 °F /  -9.3 °C 1020.5 in /  34554.1 hPa WSW 6.4 mph /  10.3 km/h 12.9 mph /  20.8 km/h 94 % 0.0 in /  0 mm
00:42 16.2 °F /  -8.8 °C 15.2 °F /  -9.3 °C 1020.5 in /  34554.1 hPa WSW 9.7 mph /  15.6 km/h 12.9 mph /  20.8 km/h 94 % 0.0 in /  0 mm
00:52 16.1 °F /  -8.8 °C 15.1 °F /  -9.4 °C 1020.5 in /  34554.1 hPa West 6.4 mph /  10.3 km/h 14.5 mph /  23.3 km/h 94 % 0.0 in /  0 mm
00:57 16.1 °F /  -8.8 °C 15.1 °F /  -9.4 °C 1020.5 in /  34554.1 hPa West 4.8 mph /  7.7 km/h 14.5 mph /  23.3 km/h 94 % 0.0 in /  0 mm
01:02 15.9 °F /  -8.9 °C 14.9 °F /  -9.5 °C 1020.5 in /  34554.1 hPa SW 4.8 mph /  7.7 km/h 14.5 mph /  23.3 km/h 94 % 0.0 in /  0 mm
01:12 15.8 °F /  -9 °C 14.7 °F /  -9.6 °C 1020.9 in /  34567.7 hPa West 1.6 mph /  2.6 km/h 12.9 mph /  20.8 km/h 93 % 0.0 in /  0 mm
01:17 15.8 °F /  -9 °C 14.5 °F /  -9.7 °C 1020.9 in /  34567.7 hPa WSW 3.2 mph /  5.1 km/h 12.9 mph /  20.8 km/h 92 % 0.0 in /  0 mm
01:22 15.7 °F /  -9.1 °C 14.4 °F /  -9.8 °C 1020.9 in /  34567.7 hPa WSW 6.4 mph /  10.3 km/h 12.9 mph /  20.8 km/h 92 % 0.0 in /  0 mm
01:27 15.7 °F /  -9.1 °C 14.4 °F /  -9.8 °C 1020.9 in /  34567.7 hPa West 6.4 mph /  10.3 km/h 12.9 mph /  20.8 km/h 92 % 0.0 in /  0 mm
01:32 15.6 °F /  -9.1 °C 14.3 °F /  -9.8 °C 1020.9 in /  34567.7 hPa West 6.4 mph /  10.3 km/h 9.7 mph /  15.6 km/h 92 % 0.0 in /  0 mm
01:37 15.5 °F /  -9.2 °C 14.2 °F /  -9.9 °C 1020.9 in /  34567.7 hPa WSW 3.2 mph /  5.1 km/h 9.7 mph /  15.6 km/h 92 % 0.0 in /  0 mm
01:42 15.4 °F /  -9.2 °C 14.1 °F /  -9.9 °C 1020.9 in /  34567.7 hPa WSW 4.8 mph /  7.7 km/h 9.7 mph /  15.6 km/h 92 % 0.0 in /  0 mm
01:47 15.4 °F /  -9.2 °C 14.1 °F /  -9.9 °C 1020.9 in /  34567.7 hPa West 4.8 mph /  7.7 km/h 12.9 mph /  20.8 km/h 92 % 0.0 in /  0 mm
01:52 15.3 °F /  -9.3 °C 14.0 °F /  -10 °C 1020.9 in /  34567.7 hPa WSW 6.4 mph /  10.3 km/h 12.9 mph /  20.8 km/h 92 % 0.0 in /  0 mm
01:57 15.3 °F /  -9.3 °C 14.0 °F /  -10 °C 1020.9 in /  34567.7 hPa WSW 4.8 mph /  7.7 km/h 12.9 mph /  20.8 km/h 92 % 0.0 in /  0 mm
02:07 15.1 °F /  -9.4 °C 13.6 °F /  -10.2 °C 1021.2 in /  34577.8 hPa West 4.8 mph /  7.7 km/h 11.3 mph /  18.2 km/h 91 % 0.0 in /  0 mm
02:12 15.0 °F /  -9.4 °C 13.4 °F /  -10.3 °C 1021.2 in /  34577.8 hPa West 1.6 mph /  2.6 km/h 11.3 mph /  18.2 km/h 90 % 0.3 in /  7.62 mm
02:17 14.9 °F /  -9.5 °C 13.3 °F /  -10.4 °C 1021.2 in /  34577.8 hPa WNW 1.6 mph /  2.6 km/h 11.3 mph /  18.2 km/h 90 % 0.3 in /  7.62 mm
02:22 14.8 °F /  -9.6 °C 13.2 °F /  -10.4 °C 1021.2 in /  34577.8 hPa Calm   11.3 mph /  18.2 km/h 90 % 0.3 in /  7.62 mm
02:32 14.7 °F /  -9.6 °C 13.1 °F /  -10.5 °C 1021.2 in /  34577.8 hPa WNW 8.0 mph /  12.9 km/h 9.7 mph /  15.6 km/h 90 % 0.3 in /  7.62 mm
02:37 14.6 °F /  -9.7 °C 12.8 °F /  -10.7 °C 1021.2 in /  34577.8 hPa West 3.2 mph /  5.1 km/h 9.7 mph /  15.6 km/h 89 % 0.3 in /  7.62 mm
02:42 14.5 °F /  -9.7 °C 12.7 °F /  -10.7 °C 1021.2 in /  34577.8 hPa West 3.2 mph /  5.1 km/h 9.7 mph /  15.6 km/h 89 % 0.3 in /  7.62 mm
02:47 14.4 °F /  -9.8 °C 12.6 °F /  -10.8 °C 1021.2 in /  34577.8 hPa WNW 3.2 mph /  5.1 km/h 9.7 mph /  15.6 km/h 89 % 0.3 in /  7.62 mm
02:52 14.2 °F /  -9.9 °C 12.6 °F /  -10.8 °C 1021.2 in /  34577.8 hPa WNW 6.4 mph /  10.3 km/h 9.7 mph /  15.6 km/h 90 % 0.3 in /  7.62 mm
02:57 14.1 °F /  -9.9 °C 12.5 °F /  -10.8 °C 1021.2 in /  34577.8 hPa WNW 1.6 mph /  2.6 km/h 9.7 mph /  15.6 km/h 90 % 0.3 in /  7.62 mm
03:02 13.9 °F /  -10.1 °C 12.5 °F /  -10.8 °C 1021.2 in /  34577.8 hPa WNW 3.2 mph /  5.1 km/h 9.7 mph /  15.6 km/h 91 % 0.3 in /  7.62 mm
03:07 13.9 °F /  -10.1 °C 12.5 °F /  -10.8 °C 1021.2 in /  34577.8 hPa West 3.2 mph /  5.1 km/h 6.4 mph /  10.3 km/h 91 % 0.0 in /  0 mm
03:12 13.8 °F /  -10.1 °C 12.4 °F /  -10.9 °C 1021.2 in /  34577.8 hPa NW 4.8 mph /  7.7 km/h 8.0 mph /  12.9 km/h 91 % 0.0 in /  0 mm
03:17 13.7 °F /  -10.2 °C 12.3 °F /  -10.9 °C 1021.2 in /  34577.8 hPa West 1.6 mph /  2.6 km/h 8.0 mph /  12.9 km/h 91 % 0.0 in /  0 mm
03:22 13.6 °F /  -10.2 °C 12.3 °F /  -10.9 °C 1021.2 in /  34577.8 hPa WNW 3.2 mph /  5.1 km/h 6.4 mph /  10.3 km/h 92 % 0.0 in /  0 mm
03:27 13.5 °F /  -10.3 °C 12.2 °F /  -11 °C 1021.2 in /  34577.8 hPa Calm   8.0 mph /  12.9 km/h 92 % 0.0 in /  0 mm
03:32 13.4 °F /  -10.3 °C 12.1 °F /  -11.1 °C 1021.2 in /  34577.8 hPa Calm   8.0 mph /  12.9 km/h 92 % 0.0 in /  0 mm
03:37 13.3 °F /  -10.4 °C 12.0 °F /  -11.1 °C 1021.2 in /  34577.8 hPa Calm   8.0 mph /  12.9 km/h 92 % 0.0 in /  0 mm
03:42 13.3 °F /  -10.4 °C 12.2 °F /  -11 °C 1021.6 in /  34591.4 hPa Calm     93 % 0.0 in /  0 mm
03:47 13.2 °F /  -10.4 °C 12.1 °F /  -11.1 °C 1021.2 in /  34577.8 hPa Calm     93 % 0.0 in /  0 mm
03:52 13.2 °F /  -10.4 °C 12.1 °F /  -11.1 °C 1021.2 in /  34577.8 hPa Calm     93 % 0.0 in /  0 mm
04:02 13.2 °F /  -10.4 °C 12.3 °F /  -10.9 °C 1021.6 in /  34591.4 hPa Calm   4.8 mph /  7.7 km/h 94 % 0.0 in /  0 mm
04:12 13.2 °F /  -10.4 °C 12.1 °F /  -11.1 °C 1021.6 in /  34591.4 hPa Calm   4.8 mph /  7.7 km/h 93 % 0.0 in /  0 mm
04:17 13.0 °F /  -10.6 °C 11.9 °F /  -11.2 °C 1021.6 in /  34591.4 hPa Calm   3.2 mph /  5.1 km/h 93 % 0.0 in /  0 mm
04:22 12.8 °F /  -10.7 °C 11.7 °F /  -11.3 °C 1021.6 in /  34591.4 hPa Calm   3.2 mph /  5.1 km/h 93 % 0.0 in /  0 mm
04:27 12.7 °F /  -10.7 °C 11.6 °F /  -11.3 °C 1021.6 in /  34591.4 hPa Calm   1.6 mph /  2.6 km/h 93 % 0.0 in /  0 mm
04:32 12.7 °F /  -10.7 °C 11.8 °F /  -11.2 °C 1021.6 in /  34591.4 hPa Calm   1.6 mph /  2.6 km/h 94 % 0.0 in /  0 mm
04:37 12.8 °F /  -10.7 °C 11.9 °F /  -11.2 °C 1021.6 in /  34591.4 hPa Calm   4.8 mph /  7.7 km/h 94 % 0.0 in /  0 mm
04:42 12.8 °F /  -10.7 °C 11.7 °F /  -11.3 °C 1021.6 in /  34591.4 hPa Calm   4.8 mph /  7.7 km/h 93 % 0.0 in /  0 mm
04:47 12.8 °F /  -10.7 °C 11.9 °F /  -11.2 °C 1021.6 in /  34591.4 hPa Calm   4.8 mph /  7.7 km/h 94 % 0.0 in /  0 mm
04:52 12.8 °F /  -10.7 °C 11.9 °F /  -11.2 °C 1021.6 in /  34591.4 hPa Calm   4.8 mph /  7.7 km/h 94 % 0.0 in /  0 mm
05:02 12.8 °F /  -10.7 °C 11.9 °F /  -11.2 °C 1021.6 in /  34591.4 hPa Calm   1.6 mph /  2.6 km/h 94 % 0.0 in /  0 mm
05:17 12.8 °F /  -10.7 °C 11.9 °F /  -11.2 °C 1021.9 in /  34601.5 hPa SSW 1.6 mph /  2.6 km/h 3.2 mph /  5.1 km/h 94 % 0.0 in /  0 mm
05:22 12.8 °F /  -10.7 °C 11.9 °F /  -11.2 °C 1021.9 in /  34601.5 hPa Calm   3.2 mph /  5.1 km/h 94 % 0.0 in /  0 mm
05:27 12.9 °F /  -10.6 °C 12.0 °F /  -11.1 °C 1021.9 in /  34601.5 hPa Calm   1.6 mph /  2.6 km/h 94 % 0.0 in /  0 mm
05:32 13.0 °F /  -10.6 °C 12.1 °F /  -11.1 °C 1021.9 in /  34601.5 hPa Calm   1.6 mph /  2.6 km/h 94 % 0.0 in /  0 mm
05:42 13.2 °F /  -10.4 °C 12.1 °F /  -11.1 °C 1021.9 in /  34601.5 hPa Calm   1.6 mph /  2.6 km/h 93 % 0.0 in /  0 mm
05:47 13.2 °F /  -10.4 °C 11.9 °F /  -11.2 °C 1021.9 in /  34601.5 hPa Calm   3.2 mph /  5.1 km/h 92 % 0.0 in /  0 mm
05:52 13.1 °F /  -10.5 °C 11.8 °F /  -11.2 °C 1021.9 in /  34601.5 hPa Calm   3.2 mph /  5.1 km/h 92 % 0.0 in /  0 mm
05:57 12.9 °F /  -10.6 °C 11.6 °F /  -11.3 °C 1021.9 in /  34601.5 hPa Calm   3.2 mph /  5.1 km/h 92 % 0.0 in /  0 mm
06:02 12.8 °F /  -10.7 °C 11.5 °F /  -11.4 °C 1021.9 in /  34601.5 hPa Calm   3.2 mph /  5.1 km/h 92 % 0.0 in /  0 mm
06:12 12.6 °F /  -10.8 °C 11.5 °F /  -11.4 °C 1021.9 in /  34601.5 hPa Calm   3.2 mph /  5.1 km/h 93 % 0.0 in /  0 mm
06:17 12.6 °F /  -10.8 °C 11.5 °F /  -11.4 °C 1022.2 in /  34611.7 hPa Calm   3.2 mph /  5.1 km/h 93 % 0.0 in /  0 mm
06:22 12.4 °F /  -10.9 °C 11.3 °F /  -11.5 °C 1022.2 in /  34611.7 hPa Calm   3.2 mph /  5.1 km/h 93 % 0.0 in /  0 mm
06:27 12.3 °F /  -10.9 °C 11.4 °F /  -11.4 °C 1022.2 in /  34611.7 hPa Calm   1.6 mph /  2.6 km/h 94 % 0.0 in /  0 mm
06:32 12.3 °F /  -10.9 °C 11.4 °F /  -11.4 °C 1022.2 in /  34611.7 hPa Calm   1.6 mph /  2.6 km/h 94 % 0.0 in /  0 mm
06:42 12.2 °F /  -11 °C 11.3 °F /  -11.5 °C 1022.2 in /  34611.7 hPa Calm   1.6 mph /  2.6 km/h 94 % 0.0 in /  0 mm
06:47 12.1 °F /  -11.1 °C 11.2 °F /  -11.6 °C 1022.2 in /  34611.7 hPa Calm   1.6 mph /  2.6 km/h 94 % 0.0 in /  0 mm
06:52 12.1 °F /  -11.1 °C 11.2 °F /  -11.6 °C 1022.2 in /  34611.7 hPa Calm   1.6 mph /  2.6 km/h 94 % 0.0 in /  0 mm
06:57 12.0 °F /  -11.1 °C 11.1 °F /  -11.6 °C 1022.6 in /  34625.2 hPa Calm     94 % 0.0 in /  0 mm
07:02 12.0 °F /  -11.1 °C 11.1 °F /  -11.6 °C 1022.6 in /  34625.2 hPa Calm     94 % 0.0 in /  0 mm
07:12 11.9 °F /  -11.2 °C 11.0 °F /  -11.7 °C 1022.6 in /  34625.2 hPa Calm     94 % 0.0 in /  0 mm
07:17 11.8 °F /  -11.2 °C 10.9 °F /  -11.7 °C 1022.9 in /  34635.4 hPa Calm     94 % 0.0 in /  0 mm
07:22 11.8 °F /  -11.2 °C 10.9 °F /  -11.7 °C 1022.9 in /  34635.4 hPa Calm     94 % 0.0 in /  0 mm
07:27 11.7 °F /  -11.3 °C 10.8 °F /  -11.8 °C 1022.9 in /  34635.4 hPa Calm     94 % 0.0 in /  0 mm
07:32 11.6 °F /  -11.3 °C 10.7 °F /  -11.8 °C 1022.9 in /  34635.4 hPa Calm     94 % 0.0 in /  0 mm
07:42 11.8 °F /  -11.2 °C 11.0 °F /  -11.7 °C 1023.2 in /  34645.6 hPa Calm     95 % 0.0 in /  0 mm
07:47 12.0 °F /  -11.1 °C 11.2 °F /  -11.6 °C 1023.2 in /  34645.6 hPa Calm     95 % 0.0 in /  0 mm
07:52 12.2 °F /  -11 °C 11.4 °F /  -11.4 °C 1023.2 in /  34645.6 hPa Calm     95 % 0.0 in /  0 mm
08:02 12.4 °F /  -10.9 °C 11.5 °F /  -11.4 °C 1023.2 in /  34645.6 hPa Calm     94 % 0.0 in /  0 mm
08:12 12.6 °F /  -10.8 °C 11.7 °F /  -11.3 °C 1023.2 in /  34645.6 hPa Calm     94 % 0.0 in /  0 mm
08:17 12.6 °F /  -10.8 °C 11.7 °F /  -11.3 °C 1023.2 in /  34645.6 hPa Calm     94 % 0.0 in /  0 mm
08:22 12.7 °F /  -10.7 °C 11.8 °F /  -11.2 °C 1023.2 in /  34645.6 hPa Calm     94 % 0.0 in /  0 mm
08:32 13.4 °F /  -10.3 °C 12.5 °F /  -10.8 °C 1023.2 in /  34645.6 hPa Calm     94 % 0.0 in /  0 mm
08:42 13.8 °F /  -10.1 °C 12.4 °F /  -10.9 °C 1023.6 in /  34659.1 hPa SSW 3.2 mph /  5.1 km/h   91 % 0.0 in /  0 mm
08:52 13.9 °F /  -10.1 °C 12.5 °F /  -10.8 °C 1023.6 in /  34659.1 hPa Calm   3.2 mph /  5.1 km/h 91 % 0.0 in /  0 mm
09:02 13.9 °F /  -10.1 °C 11.8 °F /  -11.2 °C 1023.6 in /  34659.1 hPa WSW 1.6 mph /  2.6 km/h 3.2 mph /  5.1 km/h 87 % 0.0 in /  0 mm
09:12 14.2 °F /  -9.9 °C 12.4 °F /  -10.9 °C 1023.6 in /  34659.1 hPa SSW 1.6 mph /  2.6 km/h 4.8 mph /  7.7 km/h 89 % 0.0 in /  0 mm
09:17 14.2 °F /  -9.9 °C 12.2 °F /  -11 °C 1023.6 in /  34659.1 hPa SW 4.8 mph /  7.7 km/h 4.8 mph /  7.7 km/h 88 % 0.0 in /  0 mm
09:22 14.3 °F /  -9.8 °C 12.3 °F /  -10.9 °C 1023.6 in /  34659.1 hPa SSW 1.6 mph /  2.6 km/h 4.8 mph /  7.7 km/h 88 % 0.0 in /  0 mm
09:27 14.5 °F /  -9.7 °C 12.2 °F /  -11 °C 1023.6 in /  34659.1 hPa Calm   6.4 mph /  10.3 km/h 86 % 0.0 in /  0 mm
09:32 14.9 °F /  -9.5 °C 12.6 °F /  -10.8 °C 1023.6 in /  34659.1 hPa Calm   6.4 mph /  10.3 km/h 86 % 0.0 in /  0 mm
09:42 15.5 °F /  -9.2 °C 12.6 °F /  -10.8 °C 1023.6 in /  34659.1 hPa East 3.2 mph /  5.1 km/h 4.8 mph /  7.7 km/h 83 % 0.0 in /  0 mm
09:47 15.3 °F /  -9.3 °C 12.1 °F /  -11.1 °C 1023.6 in /  34659.1 hPa West 1.6 mph /  2.6 km/h 4.8 mph /  7.7 km/h 81 % 0.0 in /  0 mm
09:52 15.2 °F /  -9.3 °C 12.1 °F /  -11.1 °C 1023.9 in /  34669.3 hPa NW 1.6 mph /  2.6 km/h 4.8 mph /  7.7 km/h 82 % 0.0 in /  0 mm
10:02 15.3 °F /  -9.3 °C 11.3 °F /  -11.5 °C 1023.9 in /  34669.3 hPa WNW 6.4 mph /  10.3 km/h 9.7 mph /  15.6 km/h 77 % 0.0 in /  0 mm
10:12 15.5 °F /  -9.2 °C 11.1 °F /  -11.6 °C 1023.9 in /  34669.3 hPa West 3.2 mph /  5.1 km/h 11.3 mph /  18.2 km/h 75 % 0.0 in /  0 mm
10:22 15.7 °F /  -9.1 °C 11.3 °F /  -11.5 °C 1023.9 in /  34669.3 hPa NW 3.2 mph /  5.1 km/h 14.5 mph /  23.3 km/h 75 % 0.0 in /  0 mm
10:32 16.1 °F /  -8.8 °C 11.3 °F /  -11.5 °C 1023.9 in /  34669.3 hPa West 4.8 mph /  7.7 km/h 14.5 mph /  23.3 km/h 73 % 0.0 in /  0 mm
10:37 16.4 °F /  -8.7 °C 11.8 °F /  -11.2 °C 1023.9 in /  34669.3 hPa West 6.4 mph /  10.3 km/h 9.7 mph /  15.6 km/h 74 % 0.0 in /  0 mm
10:42 16.4 °F /  -8.7 °C 11.1 °F /  -11.6 °C 1023.9 in /  34669.3 hPa NW 8.0 mph /  12.9 km/h 9.7 mph /  15.6 km/h 71 % 0.0 in /  0 mm
10:52 16.5 °F /  -8.6 °C 11.4 °F /  -11.4 °C 1023.9 in /  34669.3 hPa Calm   11.3 mph /  18.2 km/h 72 % 0.0 in /  0 mm
11:02 16.6 °F /  -8.6 °C 10.9 °F /  -11.7 °C 1023.9 in /  34669.3 hPa WSW 4.8 mph /  7.7 km/h 16.1 mph /  25.9 km/h 69 % 0.0 in /  0 mm
11:12 16.8 °F /  -8.4 °C 11.1 °F /  -11.6 °C 1023.9 in /  34669.3 hPa West 6.4 mph /  10.3 km/h 14.5 mph /  23.3 km/h 69 % 0.0 in /  0 mm
11:17 16.8 °F /  -8.4 °C 10.6 °F /  -11.9 °C 1023.9 in /  34669.3 hPa West 12.9 mph /  20.8 km/h 14.5 mph /  23.3 km/h 67 % 0.0 in /  0 mm
11:22 17.0 °F /  -8.3 °C 10.8 °F /  -11.8 °C 1023.9 in /  34669.3 hPa WNW 9.7 mph /  15.6 km/h 14.5 mph /  23.3 km/h 67 % 0.0 in /  0 mm
11:32 16.9 °F /  -8.4 °C 11.0 °F /  -11.7 °C 1023.9 in /  34669.3 hPa West 9.7 mph /  15.6 km/h 17.7 mph /  28.5 km/h 68 % 0.0 in /  0 mm
11:42 17.1 °F /  -8.3 °C 10.7 °F /  -11.8 °C 1023.9 in /  34669.3 hPa WNW 9.7 mph /  15.6 km/h 22.5 mph /  36.2 km/h 66 % 0.0 in /  0 mm
11:52 17.1 °F /  -8.3 °C 10.9 °F /  -11.7 °C 1023.9 in /  34669.3 hPa West 8.0 mph /  12.9 km/h 14.5 mph /  23.3 km/h 67 % 0.0 in /  0 mm
12:02 17.4 °F /  -8.1 °C 11.9 °F /  -11.2 °C 1023.9 in /  34669.3 hPa West 6.4 mph /  10.3 km/h 16.1 mph /  25.9 km/h 70 % 0.0 in /  0 mm
12:12 17.2 °F /  -8.2 °C 10.8 °F /  -11.8 °C 1023.9 in /  34669.3 hPa West 6.4 mph /  10.3 km/h 12.9 mph /  20.8 km/h 66 % 0.0 in /  0 mm
12:17 17.3 °F /  -8.2 °C 10.9 °F /  -11.7 °C 1023.9 in /  34669.3 hPa NW 9.7 mph /  15.6 km/h 16.1 mph /  25.9 km/h 66 % 0.0 in /  0 mm
12:22 17.5 °F /  -8.1 °C 11.1 °F /  -11.6 °C 1023.9 in /  34669.3 hPa WSW 11.3 mph /  18.2 km/h 16.1 mph /  25.9 km/h 66 % 0.0 in /  0 mm
12:32 17.6 °F /  -8 °C 11.2 °F /  -11.6 °C 1023.9 in /  34669.3 hPa West 11.3 mph /  18.2 km/h 16.1 mph /  25.9 km/h 66 % 0.0 in /  0 mm
12:42 17.7 °F /  -7.9 °C 11.0 °F /  -11.7 °C 1023.9 in /  34669.3 hPa West 6.4 mph /  10.3 km/h 20.9 mph /  33.6 km/h 65 % 0.0 in /  0 mm
12:52 17.7 °F /  -7.9 °C 11.3 °F /  -11.5 °C 1023.9 in /  34669.3 hPa West 6.4 mph /  10.3 km/h 19.3 mph /  31.1 km/h 66 % 0.0 in /  0 mm
13:02 17.8 °F /  -7.9 °C 10.7 °F /  -11.8 °C 1023.9 in /  34669.3 hPa WSW 16.1 mph /  25.9 km/h 20.9 mph /  33.6 km/h 63 % 0.0 in /  0 mm
13:12 18.2 °F /  -7.7 °C 11.0 °F /  -11.7 °C 1023.6 in /  34659.1 hPa West 6.4 mph /  10.3 km/h 22.5 mph /  36.2 km/h 63 % 0.0 in /  0 mm
13:17 18.6 °F /  -7.4 °C 11.2 °F /  -11.6 °C 1023.9 in /  34669.3 hPa WNW 12.9 mph /  20.8 km/h 24.1 mph /  38.8 km/h 62 % 0.0 in /  0 mm
13:22 18.1 °F /  -7.7 °C 10.7 °F /  -11.8 °C 1023.9 in /  34669.3 hPa WNW 9.7 mph /  15.6 km/h 24.1 mph /  38.8 km/h 62 % 0.0 in /  0 mm
13:32 18.2 °F /  -7.7 °C 11.5 °F /  -11.4 °C 1023.9 in /  34669.3 hPa West 9.7 mph /  15.6 km/h 24.1 mph /  38.8 km/h 65 % 0.0 in /  0 mm
13:37 18.3 °F /  -7.6 °C 10.9 °F /  -11.7 °C 1023.9 in /  34669.3 hPa West 16.1 mph /  25.9 km/h 19.3 mph /  31.1 km/h 62 % 0.0 in /  0 mm
13:42 18.2 °F /  -7.7 °C 10.3 °F /  -12.1 °C 1023.9 in /  34669.3 hPa WNW 8.0 mph /  12.9 km/h 20.9 mph /  33.6 km/h 60 % 0.0 in /  0 mm
13:47 18.2 °F /  -7.7 °C 10.3 °F /  -12.1 °C 1023.9 in /  34669.3 hPa WNW 14.5 mph /  23.3 km/h 20.9 mph /  33.6 km/h 60 % 0.0 in /  0 mm
13:52 18.0 °F /  -7.8 °C 10.1 °F /  -12.2 °C 1023.9 in /  34669.3 hPa NNW 6.4 mph /  10.3 km/h 20.9 mph /  33.6 km/h 60 % 0.0 in /  0 mm
14:02 18.6 °F /  -7.4 °C 9.4 °F /  -12.6 °C 1023.9 in /  34669.3 hPa West 8.0 mph /  12.9 km/h 16.1 mph /  25.9 km/h 55 % 0.0 in /  0 mm
14:12 18.2 °F /  -7.7 °C 10.8 °F /  -11.8 °C 1023.9 in /  34669.3 hPa West 6.4 mph /  10.3 km/h 19.3 mph /  31.1 km/h 62 % 0.0 in /  0 mm
14:17 18.1 °F /  -7.7 °C 10.2 °F /  -12.1 °C 1023.9 in /  34669.3 hPa West 4.8 mph /  7.7 km/h 19.3 mph /  31.1 km/h 60 % 0.0 in /  0 mm
14:22 18.2 °F /  -7.7 °C 10.6 °F /  -11.9 °C 1023.9 in /  34669.3 hPa WNW 11.3 mph /  18.2 km/h 19.3 mph /  31.1 km/h 61 % 0.0 in /  0 mm
14:32 18.4 °F /  -7.6 °C 10.2 °F /  -12.1 °C 1023.9 in /  34669.3 hPa West 11.3 mph /  18.2 km/h 19.3 mph /  31.1 km/h 59 % 0.0 in /  0 mm
14:37 18.3 °F /  -7.6 °C 10.4 °F /  -12 °C 1023.9 in /  34669.3 hPa West 9.7 mph /  15.6 km/h 16.1 mph /  25.9 km/h 60 % 0.0 in /  0 mm
14:42 18.4 °F /  -7.6 °C 10.7 °F /  -11.8 °C 1023.9 in /  34669.3 hPa West 11.3 mph /  18.2 km/h 17.7 mph /  28.5 km/h 61 % 0.0 in /  0 mm
14:47 18.6 °F /  -7.4 °C 9.9 °F /  -12.3 °C 1023.9 in /  34669.3 hPa WSW 11.3 mph /  18.2 km/h 17.7 mph /  28.5 km/h 57 % 0.0 in /  0 mm
14:52 18.7 °F /  -7.4 °C 9.7 °F /  -12.4 °C 1023.9 in /  34669.3 hPa SW 8.0 mph /  12.9 km/h 20.9 mph /  33.6 km/h 56 % 0.0 in /  0 mm
15:02 19.3 °F /  -7.1 °C 10.0 °F /  -12.2 °C 1023.9 in /  34669.3 hPa WSW 8.0 mph /  12.9 km/h 20.9 mph /  33.6 km/h 55 % 0.0 in /  0 mm
15:07 19.3 °F /  -7.1 °C 10.6 °F /  -11.9 °C 1023.9 in /  34669.3 hPa NNW 4.8 mph /  7.7 km/h 16.1 mph /  25.9 km/h 57 % 0.0 in /  0 mm
15:12 19.2 °F /  -7.1 °C 9.7 °F /  -12.4 °C 1023.9 in /  34669.3 hPa West 11.3 mph /  18.2 km/h 16.1 mph /  25.9 km/h 54 % 0.0 in /  0 mm
15:17 19.1 °F /  -7.2 °C 9.8 °F /  -12.3 °C 1023.9 in /  34669.3 hPa West 11.3 mph /  18.2 km/h 17.7 mph /  28.5 km/h 55 % 0.0 in /  0 mm
15:22 19.3 °F /  -7.1 °C 9.8 °F /  -12.3 °C 1023.9 in /  34669.3 hPa West 11.3 mph /  18.2 km/h 17.7 mph /  28.5 km/h 54 % 0.0 in /  0 mm
15:27 19.5 °F /  -6.9 °C 9.9 °F /  -12.3 °C 1023.9 in /  34669.3 hPa West 8.0 mph /  12.9 km/h 17.7 mph /  28.5 km/h 54 % 0.0 in /  0 mm
15:32 19.6 °F /  -6.9 °C 9.5 °F /  -12.5 °C 1023.9 in /  34669.3 hPa WNW 6.4 mph /  10.3 km/h 17.7 mph /  28.5 km/h 52 % 0.0 in /  0 mm
15:37 19.3 °F /  -7.1 °C 9.5 °F /  -12.5 °C 1023.9 in /  34669.3 hPa West 9.7 mph /  15.6 km/h 16.1 mph /  25.9 km/h 53 % 0.0 in /  0 mm
15:42 19.6 °F /  -6.9 °C 10.6 °F /  -11.9 °C 1023.9 in /  34669.3 hPa SW 9.7 mph /  15.6 km/h 17.7 mph /  28.5 km/h 56 % 0.0 in /  0 mm
15:52 19.8 °F /  -6.8 °C 9.4 °F /  -12.6 °C 1023.9 in /  34669.3 hPa WNW 8.0 mph /  12.9 km/h 17.7 mph /  28.5 km/h 51 % 0.0 in /  0 mm
15:57 19.7 °F /  -6.8 °C 9.6 °F /  -12.4 °C 1023.9 in /  34669.3 hPa West 8.0 mph /  12.9 km/h 17.7 mph /  28.5 km/h 52 % 0.0 in /  0 mm
16:02 19.6 °F /  -6.9 °C 9.2 °F /  -12.7 °C 1023.9 in /  34669.3 hPa West 9.7 mph /  15.6 km/h 17.7 mph /  28.5 km/h 51 % 0.0 in /  0 mm
16:07 19.8 °F /  -6.8 °C 9.4 °F /  -12.6 °C 1023.9 in /  34669.3 hPa WNW 11.3 mph /  18.2 km/h 20.9 mph /  33.6 km/h 51 % 0.0 in /  0 mm
16:12 19.7 °F /  -6.8 °C 9.9 °F /  -12.3 °C 1023.9 in /  34669.3 hPa WNW 9.7 mph /  15.6 km/h 20.9 mph /  33.6 km/h 53 % 0.0 in /  0 mm
16:17 19.5 °F /  -6.9 °C 9.9 °F /  -12.3 °C 1023.9 in /  34669.3 hPa West 11.3 mph /  18.2 km/h 16.1 mph /  25.9 km/h 54 % 0.0 in /  0 mm
16:22 19.6 °F /  -6.9 °C 9.5 °F /  -12.5 °C 1023.9 in /  34669.3 hPa West 9.7 mph /  15.6 km/h 16.1 mph /  25.9 km/h 52 % 0.0 in /  0 mm
16:32 19.4 °F /  -7 °C 9.3 °F /  -12.6 °C 1023.9 in /  34669.3 hPa West 8.0 mph /  12.9 km/h 17.7 mph /  28.5 km/h 52 % 0.0 in /  0 mm
16:37 19.3 °F /  -7.1 °C 10.0 °F /  -12.2 °C 1023.9 in /  34669.3 hPa WNW 9.7 mph /  15.6 km/h 17.7 mph /  28.5 km/h 55 % 0.0 in /  0 mm
16:42 19.2 °F /  -7.1 °C 9.4 °F /  -12.6 °C 1023.9 in /  34669.3 hPa WNW 8.0 mph /  12.9 km/h 19.3 mph /  31.1 km/h 53 % 0.0 in /  0 mm
16:47 19.1 °F /  -7.2 °C 9.3 °F /  -12.6 °C 1023.9 in /  34669.3 hPa WSW 8.0 mph /  12.9 km/h 19.3 mph /  31.1 km/h 53 % 0.0 in /  0 mm
16:52 19.2 °F /  -7.1 °C 9.7 °F /  -12.4 °C 1023.9 in /  34669.3 hPa West 4.8 mph /  7.7 km/h 19.3 mph /  31.1 km/h 54 % 0.0 in /  0 mm
16:57 19.2 °F /  -7.1 °C 9.4 °F /  -12.6 °C 1023.9 in /  34669.3 hPa WNW 8.0 mph /  12.9 km/h 19.3 mph /  31.1 km/h 53 % 0.0 in /  0 mm
17:02 19.3 °F /  -7.1 °C 9.8 °F /  -12.3 °C 1023.9 in /  34669.3 hPa West 11.3 mph /  18.2 km/h 19.3 mph /  31.1 km/h 54 % 0.0 in /  0 mm
17:12 19.6 °F /  -6.9 °C 9.8 °F /  -12.3 °C 1023.9 in /  34669.3 hPa WSW 14.5 mph /  23.3 km/h 17.7 mph /  28.5 km/h 53 % 0.0 in /  0 mm
17:17 19.6 °F /  -6.9 °C 9.5 °F /  -12.5 °C 1023.6 in /  34659.1 hPa WSW 9.7 mph /  15.6 km/h 17.7 mph /  28.5 km/h 52 % 0.0 in /  0 mm
17:22 19.6 °F /  -6.9 °C 9.2 °F /  -12.7 °C 1023.6 in /  34659.1 hPa NW 6.4 mph /  10.3 km/h 14.5 mph /  23.3 km/h 51 % 0.0 in /  0 mm
17:32 19.3 °F /  -7.1 °C 8.9 °F /  -12.8 °C 1023.6 in /  34659.1 hPa NW 9.7 mph /  15.6 km/h 14.5 mph /  23.3 km/h 51 % 0.0 in /  0 mm
17:37 19.2 °F /  -7.1 °C 9.1 °F /  -12.7 °C 1023.9 in /  34669.3 hPa West 4.8 mph /  7.7 km/h 16.1 mph /  25.9 km/h 52 % 0.0 in /  0 mm
17:42 19.1 °F /  -7.2 °C 9.3 °F /  -12.6 °C 1023.9 in /  34669.3 hPa WNW 1.6 mph /  2.6 km/h 16.1 mph /  25.9 km/h 53 % 0.0 in /  0 mm
17:47 19.5 °F /  -6.9 °C 9.9 °F /  -12.3 °C 1023.6 in /  34659.1 hPa WNW 3.2 mph /  5.1 km/h 12.9 mph /  20.8 km/h 54 % 0.0 in /  0 mm
17:52 19.6 °F /  -6.9 °C 9.5 °F /  -12.5 °C 1023.6 in /  34659.1 hPa WSW 3.2 mph /  5.1 km/h 9.7 mph /  15.6 km/h 52 % 0.0 in /  0 mm
17:57 19.4 °F /  -7 °C 9.0 °F /  -12.8 °C 1023.6 in /  34659.1 hPa WNW 3.2 mph /  5.1 km/h 8.0 mph /  12.9 km/h 51 % 0.0 in /  0 mm
18:02 19.6 °F /  -6.9 °C 9.2 °F /  -12.7 °C 1023.6 in /  34659.1 hPa NW 6.4 mph /  10.3 km/h 8.0 mph /  12.9 km/h 51 % 0.0 in /  0 mm
18:12 20.2 °F /  -6.6 °C 9.7 °F /  -12.4 °C 1023.6 in /  34659.1 hPa West 3.2 mph /  5.1 km/h 9.7 mph /  15.6 km/h 51 % 0.0 in /  0 mm
18:17 20.6 °F /  -6.3 °C 10.4 °F /  -12 °C 1023.6 in /  34659.1 hPa NW 3.2 mph /  5.1 km/h 9.7 mph /  15.6 km/h 52 % 0.0 in /  0 mm
18:22 20.4 °F /  -6.4 °C 9.0 °F /  -12.8 °C 1023.6 in /  34659.1 hPa West 4.8 mph /  7.7 km/h 9.7 mph /  15.6 km/h 48 % 0.0 in /  0 mm
18:27 20.2 °F /  -6.6 °C 9.1 °F /  -12.7 °C 1023.6 in /  34659.1 hPa WNW 6.4 mph /  10.3 km/h 9.7 mph /  15.6 km/h 49 % 0.0 in /  0 mm
18:37 20.1 °F /  -6.6 °C 9.4 °F /  -12.6 °C 1023.6 in /  34659.1 hPa WNW 1.6 mph /  2.6 km/h 14.5 mph /  23.3 km/h 50 % 0.0 in /  0 mm
18:42 19.7 °F /  -6.8 °C 9.0 °F /  -12.8 °C 1023.6 in /  34659.1 hPa West 3.2 mph /  5.1 km/h 12.9 mph /  20.8 km/h 50 % 0.0 in /  0 mm
18:52 19.2 °F /  -7.1 °C 9.4 °F /  -12.6 °C 1023.6 in /  34659.1 hPa West 1.6 mph /  2.6 km/h 14.5 mph /  23.3 km/h 53 % 0.0 in /  0 mm
18:57 19.2 °F /  -7.1 °C 9.9 °F /  -12.3 °C 1023.6 in /  34659.1 hPa Calm   8.0 mph /  12.9 km/h 55 % 0.0 in /  0 mm
19:02 19.4 °F /  -7 °C 9.6 °F /  -12.4 °C 1023.6 in /  34659.1 hPa Calm   8.0 mph /  12.9 km/h 53 % 0.0 in /  0 mm
19:12 19.9 °F /  -6.7 °C 9.5 °F /  -12.5 °C 1023.6 in /  34659.1 hPa Calm   4.8 mph /  7.7 km/h 51 % 0.0 in /  0 mm
19:17 20.1 °F /  -6.6 °C 9.6 °F /  -12.4 °C 1023.6 in /  34659.1 hPa WNW 3.2 mph /  5.1 km/h 3.2 mph /  5.1 km/h 51 % 0.0 in /  0 mm
19:22 20.3 °F /  -6.5 °C 9.5 °F /  -12.5 °C 1023.6 in /  34659.1 hPa WNW 1.6 mph /  2.6 km/h 4.8 mph /  7.7 km/h 50 % 0.0 in /  0 mm
19:32 19.9 °F /  -6.7 °C 9.2 °F /  -12.7 °C 1023.6 in /  34659.1 hPa West 1.6 mph /  2.6 km/h 4.8 mph /  7.7 km/h 50 % 0.0 in /  0 mm
19:37 19.7 °F /  -6.8 °C 9.6 °F /  -12.4 °C 1023.9 in /  34669.3 hPa West 4.8 mph /  7.7 km/h 9.7 mph /  15.6 km/h 52 % 0.0 in /  0 mm
19:42 19.6 °F /  -6.9 °C 9.8 °F /  -12.3 °C 1023.9 in /  34669.3 hPa West 4.8 mph /  7.7 km/h 9.7 mph /  15.6 km/h 53 % 0.0 in /  0 mm
19:52 19.5 °F /  -6.9 °C 9.7 °F /  -12.4 °C 1023.9 in /  34669.3 hPa WSW 1.6 mph /  2.6 km/h 9.7 mph /  15.6 km/h 53 % 0.0 in /  0 mm
19:57 19.4 °F /  -7 °C 9.9 °F /  -12.3 °C 1023.9 in /  34669.3 hPa West 1.6 mph /  2.6 km/h 8.0 mph /  12.9 km/h 54 % 0.0 in /  0 mm
20:02 19.4 °F /  -7 °C 9.9 °F /  -12.3 °C 1023.9 in /  34669.3 hPa West 3.2 mph /  5.1 km/h 8.0 mph /  12.9 km/h 54 % 0.0 in /  0 mm
20:07 19.3 °F /  -7.1 °C 10.3 °F /  -12.1 °C 1023.9 in /  34669.3 hPa Calm   4.8 mph /  7.7 km/h 56 % 0.0 in /  0 mm
20:12 19.1 °F /  -7.2 °C 10.4 °F /  -12 °C 1023.9 in /  34669.3 hPa West 1.6 mph /  2.6 km/h 4.8 mph /  7.7 km/h 57 % 0.0 in /  0 mm
20:17 18.9 °F /  -7.3 °C 10.2 °F /  -12.1 °C 1024.3 in /  34682.8 hPa West 1.6 mph /  2.6 km/h 4.8 mph /  7.7 km/h 57 % 0.0 in /  0 mm
20:22 18.6 °F /  -7.4 °C 9.9 °F /  -12.3 °C 1024.3 in /  34682.8 hPa West 3.2 mph /  5.1 km/h 4.8 mph /  7.7 km/h 57 % 0.0 in /  0 mm
20:27 18.4 °F /  -7.6 °C 10.2 °F /  -12.1 °C 1024.3 in /  34682.8 hPa West 1.6 mph /  2.6 km/h 6.4 mph /  10.3 km/h 59 % 0.0 in /  0 mm
20:32 18.2 °F /  -7.7 °C 10.3 °F /  -12.1 °C 1024.3 in /  34682.8 hPa West 1.6 mph /  2.6 km/h 6.4 mph /  10.3 km/h 60 % 0.0 in /  0 mm
20:37 17.9 °F /  -7.8 °C 10.3 °F /  -12.1 °C 1024.3 in /  34682.8 hPa Calm   6.4 mph /  10.3 km/h 61 % 0.0 in /  0 mm
20:42 17.5 °F /  -8.1 °C 10.1 °F /  -12.2 °C 1024.3 in /  34682.8 hPa West 3.2 mph /  5.1 km/h 4.8 mph /  7.7 km/h 62 % 0.0 in /  0 mm
20:47 17.3 °F /  -8.2 °C 10.2 °F /  -12.1 °C 1024.3 in /  34682.8 hPa Calm   4.8 mph /  7.7 km/h 63 % 0.0 in /  0 mm
20:57 16.7 °F /  -8.5 °C 10.5 °F /  -11.9 °C 1024.3 in /  34682.8 hPa Calm   4.8 mph /  7.7 km/h 67 % 0.0 in /  0 mm
21:02 16.4 °F /  -8.7 °C 10.5 °F /  -11.9 °C 1024.3 in /  34682.8 hPa Calm   4.8 mph /  7.7 km/h 68 % 0.0 in /  0 mm
21:12 15.9 °F /  -8.9 °C 10.9 °F /  -11.7 °C 1024.3 in /  34682.8 hPa Calm   1.6 mph /  2.6 km/h 72 % 0.0 in /  0 mm
21:22 15.5 °F /  -9.2 °C 10.7 °F /  -11.8 °C 1024.6 in /  34693 hPa Calm   1.6 mph /  2.6 km/h 73 % 0.0 in /  0 mm
21:27 15.3 °F /  -9.3 °C 10.7 °F /  -11.8 °C 1024.6 in /  34693 hPa Calm   1.6 mph /  2.6 km/h 74 % 0.0 in /  0 mm
21:32 15.1 °F /  -9.4 °C 10.7 °F /  -11.8 °C 1024.3 in /  34682.8 hPa Calm   1.6 mph /  2.6 km/h 75 % 0.0 in /  0 mm
21:42 15.0 °F /  -9.4 °C 10.4 °F /  -12 °C 1024.6 in /  34693 hPa Calm   1.6 mph /  2.6 km/h 74 % 0.0 in /  0 mm
21:47 14.9 °F /  -9.5 °C 10.3 °F /  -12.1 °C 1024.6 in /  34693 hPa Calm   1.6 mph /  2.6 km/h 74 % 0.0 in /  0 mm
21:52 14.9 °F /  -9.5 °C 10.3 °F /  -12.1 °C 1024.6 in /  34693 hPa Calm   1.6 mph /  2.6 km/h 74 % 0.0 in /  0 mm
21:57 14.8 °F /  -9.6 °C 10.2 °F /  -12.1 °C 1024.6 in /  34693 hPa Calm   1.6 mph /  2.6 km/h 74 % 0.0 in /  0 mm
22:02 14.6 °F /  -9.7 °C 10.4 °F /  -12 °C 1024.6 in /  34693 hPa Calm   1.6 mph /  2.6 km/h 76 % 0.0 in /  0 mm
22:07 14.3 °F /  -9.8 °C 10.3 °F /  -12.1 °C 1024.6 in /  34693 hPa Calm   1.6 mph /  2.6 km/h 77 % 0.0 in /  0 mm
22:12 14.1 °F /  -9.9 °C 10.3 °F /  -12.1 °C 1024.6 in /  34693 hPa Calm   1.6 mph /  2.6 km/h 78 % 0.0 in /  0 mm
22:22 13.9 °F /  -10.1 °C 10.1 °F /  -12.2 °C 1024.6 in /  34693 hPa Calm     78 % 0.0 in /  0 mm
22:32 13.8 °F /  -10.1 °C 10.2 °F /  -12.1 °C 1024.9 in /  34703.1 hPa Calm     79 % 0.0 in /  0 mm
22:42 13.6 °F /  -10.2 °C 10.2 °F /  -12.1 °C 1024.9 in /  34703.1 hPa Calm     80 % 0.0 in /  0 mm
22:47 13.4 °F /  -10.3 °C 10.2 °F /  -12.1 °C 1024.9 in /  34703.1 hPa Calm   1.6 mph /  2.6 km/h 81 % 0.0 in /  0 mm
22:52 13.2 °F /  -10.4 °C 10.0 °F /  -12.2 °C 1024.9 in /  34703.1 hPa Calm   1.6 mph /  2.6 km/h 81 % 0.0 in /  0 mm
22:57 13.2 °F /  -10.4 °C 10.2 °F /  -12.1 °C 1024.9 in /  34703.1 hPa Calm   1.6 mph /  2.6 km/h 82 % 0.0 in /  0 mm
23:02 13.3 °F /  -10.4 °C 10.3 °F /  -12.1 °C 1024.9 in /  34703.1 hPa Calm   1.6 mph /  2.6 km/h 82 % 0.0 in /  0 mm
23:12 13.1 °F /  -10.5 °C 10.1 °F /  -12.2 °C 1024.9 in /  34703.1 hPa Calm     82 % 0.0 in /  0 mm
23:22 12.8 °F /  -10.7 °C 9.8 °F /  -12.3 °C 1024.9 in /  34703.1 hPa Calm   1.6 mph /  2.6 km/h 82 % 0.0 in /  0 mm
23:27 12.9 °F /  -10.6 °C 9.9 °F /  -12.3 °C 1024.9 in /  34703.1 hPa NNE 1.6 mph /  2.6 km/h 1.6 mph /  2.6 km/h 82 % 0.0 in /  0 mm
23:32 13.0 °F /  -10.6 °C 10.0 °F /  -12.2 °C 1024.9 in /  34703.1 hPa Calm   1.6 mph /  2.6 km/h 82 % 0.0 in /  0 mm
23:42 13.1 °F /  -10.5 °C 9.9 °F /  -12.3 °C 1024.9 in /  34703.1 hPa Calm   1.6 mph /  2.6 km/h 81 % 0.0 in /  0 mm
23:47 13.1 °F /  -10.5 °C 10.1 °F /  -12.2 °C 1024.9 in /  34703.1 hPa Calm     82 % 0.0 in /  0 mm
23:52 12.9 °F /  -10.6 °C 10.1 °F /  -12.2 °C 1024.9 in /  34703.1 hPa Calm     83 % 0.0 in /  0 mm
Meteo18
Compliments of Weather Underground - 4 mb

Script developed by  Jim McMurry - jmcmurry@mwt.net Adapted for the template by  Wim van der Kuil - Leuven-Template.eu

You find our weather info also at:

European Weather Network

Weather Underground

Equipment we use:

Weather-station
Davis Vue

Weather-program
Meteobridge

Weather-server
Raspberry PI 2 B+

Provider
1 and 1

Davis Vue

Meteobridge

Raspberry PI 2 B+

1 and 1